Fayston, Vermont
Current Conditions -  °F | °C
As of 3:51 AM on Friday 24 Oct 2014 (Local Time) from KMPV Reporting Station
Light Rain Light Rain  
Wind Chill: 36°   Ceiling: 200
Heat Index: 41°   Visibility: 5mi
Dew Point: 41°   Wind: 8mph
Humidity: 100%   Direction: 340°NNW
Pressure: 29.81"   Gusts: NA
Location:  44.1924°N, 72.8443°W
Report Text: KMPV 240751Z AUTO 34007KT 5SM -RA BR OVC002 05/05 A2981 RMK AO2 SLP104 P0002 T00500050
Loading
Personal Weather Stations






























Interactive Weather Map New forecast layout! Learn more

10-Day Weather Forecast

Advertisements
Track Severe Weather on mobile